createdAt,value
2018-07-05T00:00:26.477Z,59.2
2018-07-05T00:00:56.912Z,59.2
2018-07-05T00:01:27.555Z,58.7
2018-07-05T00:01:57.799Z,58.7
2018-07-05T00:02:28.051Z,58.9
2018-07-05T00:03:24.979Z,59.5
2018-07-05T00:04:24.204Z,59.5
2018-07-05T00:05:23.369Z,59.3
2018-07-05T00:06:23.109Z,59.1
2018-07-05T00:07:22.538Z,59.4
2018-07-05T00:08:21.878Z,59
2018-07-05T00:09:21.109Z,58.8
2018-07-05T00:10:20.443Z,59.3
2018-07-05T00:11:20.183Z,58.9
2018-07-05T00:12:19.409Z,59
2018-07-05T00:13:18.836Z,60
2018-07-05T00:14:18.061Z,61
2018-07-05T00:15:17.897Z,60.2
2018-07-05T00:16:17.326Z,58.4
2018-07-05T00:17:16.646Z,58.3
2018-07-05T00:18:15.866Z,58
2018-07-05T00:19:15.592Z,59.7
2018-07-05T00:20:14.930Z,60
2018-07-05T00:22:13.545Z,59.4
2018-07-05T00:23:13.179Z,60.1
2018-07-05T00:24:12.626Z,58.7
2018-07-05T00:25:11.948Z,55.8
2018-07-05T00:26:11.432Z,55
2018-07-05T00:27:10.768Z,55.5
2018-07-05T00:28:10.207Z,58.7
2018-07-05T00:29:09.533Z,55.6
2018-07-05T00:30:08.906Z,53.4
2018-07-05T00:31:08.341Z,53.6
2018-07-05T00:32:08.068Z,53.5
2018-07-05T00:33:07.284Z,53.1
2018-07-05T00:34:06.718Z,53.4
2018-07-05T00:35:06.334Z,52.5
2018-07-05T00:36:05.550Z,52.6
2018-07-05T00:37:05.180Z,52.9
2018-07-05T00:38:04.622Z,51.9
2018-07-05T00:39:03.534Z,51.6
2018-07-05T00:40:03.369Z,52.1
2018-07-05T00:41:02.377Z,52.3
2018-07-05T00:42:02.107Z,51.3
2018-07-05T00:43:01.556Z,51.9
2018-07-05T00:44:00.916Z,51.8
2018-07-05T00:45:59.642Z,51.8
2018-07-05T00:46:59.080Z,52.1
2018-07-05T00:47:29.727Z,52.1
2018-07-05T00:48:58.262Z,51.8
2018-07-05T00:49:57.799Z,51.9
2018-07-05T00:50:57.134Z,52.5
2018-07-05T00:51:56.247Z,52.4
2018-07-05T00:52:56.079Z,52.7
2018-07-05T00:53:55.302Z,54.1
2018-07-05T00:54:54.924Z,54
2018-07-05T00:55:54.051Z,52.9
2018-07-05T00:56:53.773Z,52.6
2018-07-05T00:57:52.999Z,52.6
2018-07-05T00:58:52.215Z,52.3
2018-07-05T00:59:51.654Z,52.1
2018-07-05T01:00:51.264Z,52.5
2018-07-05T01:01:50.596Z,52.7
2018-07-05T01:02:49.810Z,52.9
2018-07-05T01:03:49.668Z,53.3
2018-07-05T01:04:49.012Z,55.5
2018-07-05T01:05:48.237Z,54.7
2018-07-05T01:06:48.078Z,54.2
2018-07-05T01:07:47.523Z,54.7
2018-07-05T01:08:46.749Z,55.2
2018-07-05T01:09:45.966Z,54.9
2018-07-05T01:10:45.407Z,54.5
2018-07-05T01:11:44.855Z,54.6
2018-07-05T01:12:44.587Z,55.2
2018-07-05T01:13:44.027Z,55
2018-07-05T01:14:43.475Z,55
2018-07-05T01:15:42.999Z,55.7
2018-07-05T01:16:42.231Z,55.6
2018-07-05T01:17:41.342Z,55.6
2018-07-05T01:18:40.968Z,56.3
2018-07-05T01:19:40.208Z,56.3
2018-07-05T01:20:40.036Z,56.1
2018-07-05T01:21:39.362Z,58.3
2018-07-05T01:22:38.487Z,56.6
2018-07-05T01:23:38.224Z,55.6
2018-07-05T01:24:37.556Z,55.5
2018-07-05T01:25:36.993Z,55.2
2018-07-05T01:26:36.329Z,53.9
2018-07-05T01:27:35.652Z,54
2018-07-05T01:28:06.405Z,54
2018-07-05T01:28:36.826Z,53.6
2018-07-05T01:29:07.475Z,53.6
2018-07-05T01:29:38.004Z,53.5
2018-07-05T01:30:08.434Z,53.5
2018-07-05T01:31:33.716Z,53.4
2018-07-05T01:32:32.934Z,53.2
2018-07-05T01:34:32.154Z,52.5
2018-07-05T01:35:31.486Z,52.8
2018-07-05T01:36:30.817Z,52.9
2018-07-05T01:37:30.047Z,53.1
2018-07-05T01:38:29.886Z,53.1
2018-07-05T01:39:29.208Z,53.1
2018-07-05T01:39:59.455Z,53.1
2018-07-05T01:40:30.114Z,53
2018-07-05T01:41:00.358Z,53
2018-07-05T01:41:31.003Z,52.9
2018-07-05T01:42:01.649Z,52.9
2018-07-05T01:43:26.756Z,53.2
2018-07-05T01:44:26.488Z,53.5
2018-07-05T01:45:25.600Z,53.5
2018-07-05T01:46:24.939Z,53.3
2018-07-05T01:47:24.665Z,54.1
2018-07-05T01:48:23.998Z,54.2
2018-07-05T01:49:23.326Z,54.2
2018-07-05T01:50:22.951Z,54.8
2018-07-05T01:51:22.381Z,54.7
2018-07-05T01:52:21.708Z,55.1
2018-07-05T01:53:21.055Z,54.7
2018-07-05T01:54:20.491Z,55.2
2018-07-05T01:55:19.919Z,55.1
2018-07-05T01:56:19.354Z,55.5
2018-07-05T01:57:19.185Z,55.5
2018-07-05T01:58:18.515Z,55.2
2018-07-05T01:59:17.956Z,55.9
2018-07-05T02:00:17.292Z,56
2018-07-05T02:01:16.729Z,55.9
2018-07-05T02:02:16.065Z,56.7
2018-07-05T02:03:15.285Z,56.4
2018-07-05T02:04:15.107Z,56.3
2018-07-05T02:05:14.436Z,56.5
2018-07-05T02:06:13.769Z,57.2
2018-07-05T02:07:13.119Z,57
2018-07-05T02:08:12.563Z,56.9
2018-07-05T02:09:12.285Z,57.7
2018-07-05T02:10:11.734Z,57.2
2018-07-05T02:11:11.062Z,57.7
2018-07-05T02:12:10.386Z,57.4
2018-07-05T02:12:40.633Z,57.4
2018-07-05T02:13:10.879Z,57.5
2018-07-05T02:14:09.303Z,58.2
2018-07-05T02:15:08.628Z,59
2018-07-05T02:16:08.060Z,58.2
2018-07-05T02:17:07.397Z,58.9
2018-07-05T02:18:06.855Z,58.9
2018-07-05T02:19:06.380Z,59.3
2018-07-05T02:20:05.757Z,59.3
2018-07-05T02:21:05.486Z,59.3
2018-07-05T02:22:04.709Z,58.6
2018-07-05T02:23:03.935Z,59.6
2018-07-05T02:24:03.886Z,59.9
2018-07-05T02:25:03.217Z,59.4
2018-07-05T02:26:02.448Z,59.6
2018-07-05T02:27:01.671Z,58.8
2018-07-05T02:28:01.289Z,59
2018-07-05T02:30:00.206Z,59
2018-07-05T02:30:59.439Z,58.8
2018-07-05T02:31:59.336Z,58.6
2018-07-05T02:33:58.067Z,58.7
2018-07-05T02:34:57.406Z,58.8
2018-07-05T02:35:56.764Z,58.8
2018-07-05T02:36:55.997Z,60.4
2018-07-05T02:37:55.444Z,60.5
2018-07-05T02:38:25.745Z,60.5
2018-07-05T02:38:55.896Z,61.2
2018-07-05T02:39:26.148Z,61.2
2018-07-05T02:39:56.585Z,60.9
2018-07-05T02:40:27.232Z,60.9
2018-07-05T02:41:53.032Z,61.6
2018-07-05T02:42:52.968Z,61.8
2018-07-05T02:43:52.406Z,61.4
2018-07-05T02:44:51.853Z,61.7
2018-07-05T02:45:51.198Z,61.8
2018-07-05T02:46:50.639Z,61.3
2018-07-05T02:47:50.080Z,62
2018-07-05T02:48:49.528Z,61.7
2018-07-05T02:49:48.978Z,62.9
2018-07-05T02:50:48.430Z,62.1
2018-07-05T02:51:47.768Z,62
2018-07-05T02:52:46.998Z,62
2018-07-05T02:53:46.426Z,61.7
2018-07-05T02:54:45.747Z,62.3
2018-07-05T02:55:45.074Z,62.4
2018-07-05T02:56:44.915Z,62.5
2018-07-05T02:57:44.144Z,62
2018-07-05T02:58:43.374Z,62.7
2018-07-05T02:59:43.098Z,62.3
2018-07-05T03:00:42.525Z,63.2
2018-07-05T03:01:41.857Z,63.4
2018-07-05T03:02:41.305Z,63.4
2018-07-05T03:03:40.535Z,63.6
2018-07-05T03:04:40.159Z,64.4
2018-07-05T03:05:39.592Z,64.4
2018-07-05T03:06:39.030Z,64.2
2018-07-05T03:07:38.192Z,64.9
2018-07-05T03:08:37.523Z,64.8
2018-07-05T03:09:37.257Z,64.4
2018-07-05T03:10:36.687Z,64.8
2018-07-05T03:11:36.144Z,65.3
2018-07-05T03:12:35.489Z,64.7
2018-07-05T03:13:34.726Z,65.2
2018-07-05T03:14:34.163Z,65
2018-07-05T03:15:33.381Z,65.4
2018-07-05T03:16:33.116Z,65.7
2018-07-05T03:17:32.452Z,65.5
2018-07-05T03:18:31.886Z,65.5
2018-07-05T03:19:31.106Z,65
2018-07-05T03:20:01.641Z,65
2018-07-05T03:20:31.974Z,65.8
2018-07-05T03:21:02.399Z,65.8
2018-07-05T03:21:32.649Z,66.1
2018-07-05T03:22:03.289Z,66.1
2018-07-05T03:23:28.692Z,66.2
2018-07-05T03:25:27.903Z,65.8
2018-07-05T03:26:27.231Z,65.9
2018-07-05T03:27:26.446Z,65.8
2018-07-05T03:28:26.060Z,65.9
2018-07-05T03:30:24.784Z,65.6
2018-07-05T03:30:55.430Z,65.6
2018-07-05T03:31:26.072Z,65.6
2018-07-05T03:31:56.728Z,65.6
2018-07-05T03:33:22.737Z,65.9
2018-07-05T03:33:53.425Z,65.9
2018-07-05T03:34:23.848Z,66.7
2018-07-05T03:35:21.577Z,66.4
2018-07-05T03:36:21.409Z,66.3
2018-07-05T03:37:20.838Z,66.2
2018-07-05T03:38:20.171Z,66.1
2018-07-05T03:39:19.512Z,66.6
2018-07-05T03:40:18.626Z,66.4
2018-07-05T03:41:18.259Z,66.8
2018-07-05T03:42:17.475Z,66.7
2018-07-05T03:43:16.807Z,66.4
2018-07-05T03:44:16.634Z,66.8
2018-07-05T03:45:16.068Z,66.5
2018-07-05T03:46:15.190Z,66.2
2018-07-05T03:47:14.630Z,66.5
2018-07-05T03:48:13.850Z,66.9
2018-07-05T03:49:13.173Z,66.4
2018-07-05T03:51:12.388Z,66.7
2018-07-05T03:52:11.606Z,66.4
2018-07-05T03:53:10.945Z,66.6
2018-07-05T03:54:10.378Z,66.5
2018-07-05T03:55:09.807Z,66.1
2018-07-05T03:56:09.131Z,66
2018-07-05T03:57:08.855Z,65.6
2018-07-05T03:58:08.076Z,65.6
2018-07-05T04:00:06.785Z,65.4
2018-07-05T04:01:06.397Z,65.3
2018-07-05T04:02:05.402Z,65.3
2018-07-05T04:03:05.010Z,65.4
2018-07-05T04:03:35.647Z,65.4
2018-07-05T04:05:03.777Z,65.1
2018-07-05T04:06:02.992Z,65
2018-07-05T04:07:02.619Z,65.1
2018-07-05T04:08:01.942Z,65.6
2018-07-05T04:09:01.673Z,65.7
2018-07-05T04:10:00.786Z,66
2018-07-05T04:11:00.120Z,65.6
2018-07-05T04:11:59.948Z,66.4
2018-07-05T04:12:59.272Z,66.1
2018-07-05T04:13:58.595Z,66.4
2018-07-05T04:14:29.133Z,66.4
2018-07-05T04:14:59.770Z,66.3
2018-07-05T04:15:57.218Z,67.4
2018-07-05T04:16:56.548Z,67.6
2018-07-05T04:17:55.986Z,67.3
2018-07-05T04:18:55.712Z,67.3
2018-07-05T04:19:54.937Z,67.3
2018-07-05T04:20:54.156Z,68
2018-07-05T04:21:53.595Z,67.7
2018-07-05T04:22:53.032Z,67.3
2018-07-05T04:23:52.471Z,67.5
2018-07-05T04:24:51.587Z,67.6
2018-07-05T04:25:51.322Z,68.3
2018-07-05T04:26:50.754Z,68.6
2018-07-05T04:27:50.081Z,68.5
2018-07-05T04:28:49.406Z,68
2018-07-05T04:29:48.838Z,67.4
2018-07-05T04:31:47.654Z,66.9
2018-07-05T04:32:46.759Z,66.4
2018-07-05T04:33:46.193Z,66.2
2018-07-05T04:34:46.018Z,66.9
2018-07-05T04:35:45.346Z,65.9
2018-07-05T04:36:44.784Z,65.5
2018-07-05T04:37:44.002Z,65.1
2018-07-05T04:38:43.324Z,65.1
2018-07-05T04:39:42.757Z,65
2018-07-05T04:40:41.972Z,64.8
2018-07-05T04:41:41.691Z,64.4
2018-07-05T04:42:41.179Z,64.7
2018-07-05T04:43:40.399Z,64.8
2018-07-05T04:44:39.619Z,64.2
2018-07-05T04:45:39.055Z,64
2018-07-05T04:46:38.278Z,63.7
2018-07-05T04:47:37.711Z,64.1
2018-07-05T04:48:37.539Z,64
2018-07-05T04:49:36.503Z,63.8
2018-07-05T04:50:36.222Z,64.3
2018-07-05T04:51:35.551Z,63.9
2018-07-05T04:52:34.790Z,63.8
2018-07-05T04:53:34.404Z,63.4
2018-07-05T04:54:33.841Z,63
2018-07-05T04:55:33.030Z,63.6
2018-07-05T04:57:31.975Z,62.7
2018-07-05T04:58:31.399Z,62.4
2018-07-05T04:59:30.613Z,63.2
2018-07-05T05:00:01.140Z,63.2
2018-07-05T05:00:31.282Z,62.7
2018-07-05T05:01:01.707Z,62.7
2018-07-05T05:01:32.363Z,62
2018-07-05T05:02:28.847Z,61.6
2018-07-05T05:03:28.375Z,61.2
2018-07-05T05:04:27.801Z,61.2
2018-07-05T05:05:27.232Z,61.6
2018-07-05T05:06:26.554Z,61.5
2018-07-05T05:07:25.977Z,61.1
2018-07-05T05:08:25.198Z,60.6
2018-07-05T05:09:24.731Z,60.6
2018-07-05T05:09:55.367Z,60.6
2018-07-05T05:10:25.908Z,60.4
2018-07-05T05:10:56.543Z,60.4
2018-07-05T05:12:23.045Z,60.5
2018-07-05T05:12:53.685Z,60.5
2018-07-05T05:13:24.319Z,61
2018-07-05T05:13:54.958Z,61
2018-07-05T05:15:21.002Z,60.1
2018-07-05T05:16:20.318Z,60.2
2018-07-05T05:17:19.752Z,59.4
2018-07-05T05:18:19.365Z,59.3
2018-07-05T05:19:18.796Z,59.9
2018-07-05T05:20:18.218Z,59.6
2018-07-05T05:21:17.549Z,59.4
2018-07-05T05:22:16.667Z,59.6
2018-07-05T05:23:16.499Z,59.2
2018-07-05T05:24:15.951Z,59.3
2018-07-05T05:25:15.095Z,59.6
2018-07-05T05:26:14.814Z,59.3
2018-07-05T05:27:13.936Z,59.8
2018-07-05T05:28:13.554Z,60.2
2018-07-05T05:29:12.986Z,59.6
2018-07-05T05:30:12.425Z,59.9
2018-07-05T05:31:11.752Z,59.6
2018-07-05T05:32:11.087Z,59.9
2018-07-05T05:33:10.405Z,60.1
2018-07-05T05:34:09.839Z,60.3
2018-07-05T05:35:09.158Z,59.8
2018-07-05T05:36:08.883Z,60
2018-07-05T05:38:07.699Z,60
2018-07-05T05:39:07.027Z,59.8
2018-07-05T05:40:06.364Z,59.6
2018-07-05T05:41:05.586Z,59.6
2018-07-05T05:42:05.306Z,59.6
2018-07-05T05:43:04.418Z,59.7
2018-07-05T05:44:04.139Z,59.5
2018-07-05T05:45:03.250Z,59.3
2018-07-05T05:46:02.973Z,59.4
2018-07-05T05:47:02.092Z,59.3
2018-07-05T05:48:01.713Z,59.8
2018-07-05T05:49:01.366Z,59.3
2018-07-05T05:50:00.874Z,59.1
2018-07-05T05:51:00.097Z,59.2
2018-07-05T05:51:59.317Z,59.3
2018-07-05T05:52:58.930Z,59.2
2018-07-05T05:53:58.259Z,59.7
2018-07-05T05:54:28.786Z,59.7
2018-07-05T05:55:57.303Z,59.1
2018-07-05T05:56:56.636Z,59.3
2018-07-05T05:57:56.060Z,59.2
2018-07-05T05:58:55.297Z,59.1
2018-07-05T05:59:55.116Z,59.1
2018-07-05T06:00:54.441Z,59.1
2018-07-05T06:01:54.005Z,59.2
2018-07-05T06:02:52.885Z,59.5
2018-07-05T06:03:52.714Z,59.3
2018-07-05T06:04:51.934Z,59.3
2018-07-05T06:05:51.664Z,59.2
2018-07-05T06:06:51.000Z,59
2018-07-05T06:07:50.435Z,58.8
2018-07-05T06:08:49.861Z,59.3
2018-07-05T06:09:49.084Z,58.9
2018-07-05T06:10:48.805Z,58.8
2018-07-05T06:11:48.127Z,59
2018-07-05T06:12:47.366Z,58.8
2018-07-05T06:13:46.801Z,59
2018-07-05T06:14:46.131Z,59
2018-07-05T06:15:45.857Z,59.5
2018-07-05T06:16:44.975Z,59.3
2018-07-05T06:17:44.807Z,59.5
2018-07-05T06:18:44.239Z,58.9
2018-07-05T06:19:43.427Z,58.8
2018-07-05T06:20:42.780Z,58.5
2018-07-05T06:21:42.209Z,58.5
2018-07-05T06:22:42.041Z,58.7
2018-07-05T06:23:41.364Z,58.1
2018-07-05T06:24:40.875Z,58.5
2018-07-05T06:25:40.307Z,57.9
2018-07-05T06:26:39.390Z,57.8
2018-07-05T06:27:39.119Z,57.9
2018-07-05T06:28:38.343Z,57.5
2018-07-05T06:29:37.772Z,57.7
2018-07-05T06:30:37.503Z,57.6
2018-07-05T06:31:36.828Z,57.6
2018-07-05T06:32:07.461Z,57.6
2018-07-05T06:32:38.091Z,58
2018-07-05T06:33:08.626Z,58
2018-07-05T06:33:38.883Z,57.7
2018-07-05T06:34:34.973Z,57.9
2018-07-05T06:35:34.305Z,57.1
2018-07-05T06:36:34.143Z,57.4
2018-07-05T06:37:33.356Z,57.3
2018-07-05T06:38:32.686Z,57.1
2018-07-05T06:39:32.651Z,57.1
2018-07-05T06:40:31.750Z,57.1
2018-07-05T06:41:31.074Z,57
2018-07-05T06:42:30.405Z,56.3
2018-07-05T06:43:30.232Z,55.5
2018-07-05T06:44:29.573Z,55.5
2018-07-05T06:45:28.894Z,56
2018-07-05T06:46:28.224Z,55.7
2018-07-05T06:47:28.118Z,56.2
2018-07-05T06:48:27.441Z,55.5
2018-07-05T06:49:26.803Z,55.5
2018-07-05T06:50:26.193Z,55.6
2018-07-05T06:50:56.443Z,55.6
2018-07-05T06:51:26.973Z,55.7
2018-07-05T06:51:57.617Z,55.7
2018-07-05T06:52:28.250Z,55.5
2018-07-05T06:52:58.975Z,55.5
2018-07-05T06:54:23.751Z,55.2
2018-07-05T06:55:23.176Z,55.3
2018-07-05T06:56:22.895Z,55
2018-07-05T06:57:22.216Z,55.2
2018-07-05T06:58:21.936Z,55.4
2018-07-05T06:59:21.378Z,55.2
2018-07-05T07:00:20.806Z,54.8
2018-07-05T07:01:20.024Z,55
2018-07-05T07:02:19.342Z,54.9
2018-07-05T07:03:19.177Z,55
2018-07-05T07:04:18.395Z,54.9
2018-07-05T07:05:17.825Z,54.8
2018-07-05T07:06:17.250Z,55.7
2018-07-05T07:07:16.972Z,55
2018-07-05T07:08:16.410Z,55
2018-07-05T07:09:15.736Z,55.1
2018-07-05T07:10:14.958Z,54.8
2018-07-05T07:11:14.395Z,55.1
2018-07-05T07:12:13.828Z,55.2
2018-07-05T07:13:13.647Z,54.4
2018-07-05T07:14:12.968Z,54.5
2018-07-05T07:15:12.389Z,54.8
2018-07-05T07:16:11.838Z,54.5
2018-07-05T07:17:11.053Z,54.5
2018-07-05T07:18:10.882Z,54.5
2018-07-05T07:19:10.102Z,54.1
2018-07-05T07:20:09.934Z,53.9
2018-07-05T07:21:09.367Z,54.1
2018-07-05T07:22:08.689Z,54
2018-07-05T07:23:07.931Z,53.7
2018-07-05T07:24:07.765Z,53.5
2018-07-05T07:25:06.991Z,53.2
2018-07-05T07:26:06.713Z,53.7
2018-07-05T07:27:05.723Z,54.5
2018-07-05T07:28:05.653Z,53.9
2018-07-05T07:29:04.871Z,53.3
2018-07-05T07:30:04.203Z,53.3
2018-07-05T07:31:03.652Z,53.9
2018-07-05T07:32:03.378Z,53.6
2018-07-05T07:33:02.487Z,53.8
2018-07-05T07:34:02.489Z,53.5
2018-07-05T07:34:33.128Z,53.5
2018-07-05T07:35:03.311Z,53.6
2018-07-05T07:35:33.846Z,53.6
2018-07-05T07:36:04.283Z,52.9
2018-07-05T07:36:34.815Z,52.9
2018-07-05T07:38:00.319Z,52.9
2018-07-05T07:38:59.635Z,52.7
2018-07-05T07:39:58.861Z,52.3
2018-07-05T07:40:58.599Z,51.3
2018-07-05T07:41:57.939Z,51.3
2018-07-05T07:42:57.656Z,51.3
2018-07-05T07:43:56.982Z,51.6
2018-07-05T07:44:56.237Z,51.6
2018-07-05T07:45:26.944Z,51.6
2018-07-05T07:45:57.255Z,51.5
2018-07-05T07:46:27.387Z,51.5
2018-07-05T07:47:54.898Z,49.1
2018-07-05T07:49:53.910Z,48.5
2018-07-05T07:51:52.777Z,48.3
2018-07-05T07:52:52.385Z,47.8
2018-07-05T07:53:51.663Z,47.9
2018-07-05T07:54:51.093Z,47.7
2018-07-05T07:55:50.923Z,47.7
2018-07-05T07:56:50.142Z,47.6
2018-07-05T07:57:49.990Z,48
2018-07-05T07:58:49.214Z,47.7
2018-07-05T07:59:48.536Z,47.6
2018-07-05T08:00:48.257Z,47.7
2018-07-05T08:01:47.578Z,47.3
2018-07-05T08:02:47.512Z,47
2018-07-05T08:03:46.748Z,47.1
2018-07-05T08:04:46.097Z,47.4
2018-07-05T08:05:45.824Z,47.2
2018-07-05T08:06:45.437Z,46.7
2018-07-05T08:07:45.049Z,46.6
2018-07-05T08:08:44.378Z,46.6
2018-07-05T08:09:43.704Z,46
2018-07-05T08:10:43.320Z,45.4
2018-07-05T08:11:42.642Z,45.3
2018-07-05T08:12:42.306Z,45.5
2018-07-05T08:13:42.023Z,45.4
2018-07-05T08:14:41.353Z,45.7
2018-07-05T08:15:40.972Z,45.4
2018-07-05T08:16:40.298Z,45.7
2018-07-05T08:17:40.132Z,46.2
2018-07-05T08:18:39.465Z,46.2
2018-07-05T08:19:39.081Z,45.7
2018-07-05T08:20:38.522Z,45
2018-07-05T08:21:37.860Z,45.4
2018-07-05T08:22:37.479Z,45.2
2018-07-05T08:23:36.914Z,45.2
2018-07-05T08:24:36.528Z,44.7
2018-07-05T08:25:36.254Z,45.3
2018-07-05T08:26:35.687Z,45.3
2018-07-05T08:27:34.901Z,45
2018-07-05T08:28:34.520Z,45.1
2018-07-05T08:29:33.956Z,44.5
2018-07-05T08:30:33.672Z,44.2
2018-07-05T08:31:33.393Z,44.5
2018-07-05T08:33:32.108Z,44.3
2018-07-05T08:34:31.926Z,44.1
2018-07-05T08:35:31.443Z,44.1
2018-07-05T08:36:30.776Z,44.3
2018-07-05T08:37:30.216Z,43.7
2018-07-05T08:38:30.068Z,43.6
2018-07-05T08:39:29.445Z,44.2
2018-07-05T08:40:28.761Z,43.5
2018-07-05T08:41:28.589Z,44.6
2018-07-05T08:42:28.024Z,43.1
2018-07-05T08:43:27.466Z,43.1
2018-07-05T08:43:57.994Z,43.1
2018-07-05T08:44:28.522Z,42.9
2018-07-05T08:44:58.945Z,42.9
2018-07-05T08:46:26.356Z,41.7
2018-07-05T08:47:25.863Z,42.5
2018-07-05T08:48:25.081Z,42.2
2018-07-05T08:49:24.698Z,42.4
2018-07-05T08:50:24.208Z,42.5
2018-07-05T08:51:24.039Z,42.5
2018-07-05T08:52:23.371Z,42.2
2018-07-05T08:53:23.095Z,42.8
2018-07-05T08:54:22.369Z,42.8
2018-07-05T08:55:22.195Z,42.9
2018-07-05T08:56:21.529Z,42.2
2018-07-05T08:57:21.353Z,42
2018-07-05T08:58:20.855Z,42.1
2018-07-05T08:59:20.560Z,42.3
2018-07-05T09:00:19.881Z,42.1
2018-07-05T09:01:19.317Z,42.3
2018-07-05T09:02:19.039Z,42
2018-07-05T09:03:18.379Z,42.3
2018-07-05T09:04:18.216Z,42.1
2018-07-05T09:05:17.717Z,42.2
2018-07-05T09:06:17.183Z,42
2018-07-05T09:07:17.016Z,41.8
2018-07-05T09:08:16.241Z,42
2018-07-05T09:09:16.078Z,42.3
2018-07-05T09:10:15.296Z,41.3
2018-07-05T09:11:15.133Z,41.1
2018-07-05T09:12:14.353Z,41.5
2018-07-05T09:13:13.967Z,40.5
2018-07-05T09:14:13.801Z,41.3
2018-07-05T09:15:13.021Z,40.5
2018-07-05T09:16:12.538Z,40.4
2018-07-05T09:16:42.969Z,40.4
2018-07-05T09:17:13.502Z,40.6
2018-07-05T09:18:11.825Z,40.2
2018-07-05T09:19:11.699Z,40.7
2018-07-05T09:20:11.127Z,40.6
2018-07-05T09:21:10.745Z,40.8
2018-07-05T09:22:10.464Z,41.1
2018-07-05T09:23:09.980Z,40.5
2018-07-05T09:24:09.566Z,40.4
2018-07-05T09:25:08.894Z,39.9
2018-07-05T09:26:08.717Z,40.2
2018-07-05T09:27:08.048Z,40.1
2018-07-05T09:27:38.685Z,40.1
2018-07-05T09:28:09.215Z,40
2018-07-05T09:28:39.746Z,40
2018-07-05T09:29:09.999Z,39.6
2018-07-05T09:29:40.643Z,39.6
2018-07-05T09:31:06.067Z,39.2
2018-07-05T09:32:06.114Z,39.5
2018-07-05T09:33:05.559Z,39.1
2018-07-05T09:34:05.275Z,39.6
2018-07-05T09:35:04.708Z,38.9
2018-07-05T09:36:04.218Z,39.2
2018-07-05T09:37:04.171Z,39
2018-07-05T09:38:03.615Z,39.2
2018-07-05T09:39:02.953Z,39.1
2018-07-05T09:39:33.594Z,39.1
2018-07-05T09:41:02.009Z,38.8
2018-07-05T09:42:01.631Z,39.1
2018-07-05T09:43:01.254Z,39
2018-07-05T09:44:01.201Z,39.9
2018-07-05T09:45:00.429Z,39
2018-07-05T09:46:00.166Z,38.9
2018-07-05T09:46:59.396Z,39
2018-07-05T09:47:58.969Z,38.9
2018-07-05T09:48:59.079Z,38.9
2018-07-05T09:49:58.199Z,38.3
2018-07-05T09:50:58.319Z,38.4
2018-07-05T09:51:57.642Z,38.4
2018-07-05T09:52:57.461Z,38.4
2018-07-05T09:53:56.783Z,38.1
2018-07-05T09:54:56.622Z,38.5
2018-07-05T09:55:56.051Z,38
2018-07-05T09:56:55.876Z,38.1
2018-07-05T09:57:55.386Z,38.4
2018-07-05T09:58:54.691Z,37.7
2018-07-05T10:00:53.924Z,38.2
2018-07-05T10:01:53.755Z,38.2
2018-07-05T10:02:53.478Z,37.9
2018-07-05T10:03:53.107Z,37.6
2018-07-05T10:04:52.356Z,37.8
2018-07-05T10:05:52.294Z,37.1
2018-07-05T10:06:51.515Z,36.9
2018-07-05T10:07:51.246Z,37.1
2018-07-05T10:08:50.715Z,37.6
2018-07-05T10:09:50.331Z,37.3
2018-07-05T10:10:50.276Z,37.2
2018-07-05T10:11:49.889Z,37.2
2018-07-05T10:12:49.219Z,37.1
2018-07-05T10:13:49.584Z,37.4
2018-07-05T10:14:48.641Z,37.3
2018-07-05T10:15:47.969Z,37.2
2018-07-05T10:16:47.694Z,37.1
2018-07-05T10:17:47.315Z,37.7
2018-07-05T10:19:46.534Z,37
2018-07-05T10:20:45.968Z,37.8
2018-07-05T10:21:45.696Z,37.2
2018-07-05T10:22:45.621Z,37.4
2018-07-05T10:23:44.839Z,37.2
2018-07-05T10:24:44.681Z,37.1
2018-07-05T10:25:44.503Z,37.2
2018-07-05T10:26:44.019Z,36.6
2018-07-05T10:27:14.337Z,36.6
2018-07-05T10:27:44.583Z,36.6
2018-07-05T10:28:14.736Z,36.6
2018-07-05T10:28:45.479Z,37.9
2018-07-05T10:29:16.118Z,37.9
2018-07-05T10:30:42.515Z,36.9
2018-07-05T10:31:41.750Z,37.5
2018-07-05T10:32:41.868Z,36.1
2018-07-05T10:33:41.318Z,36.4
2018-07-05T10:34:40.663Z,36
2018-07-05T10:35:40.271Z,36
2018-07-05T10:36:39.990Z,36
2018-07-05T10:37:39.815Z,35.5
2018-07-05T10:38:10.057Z,35.5
2018-07-05T10:38:40.698Z,37.1
2018-07-05T10:39:10.942Z,37.1
2018-07-05T10:39:41.541Z,36.2
2018-07-05T10:40:11.831Z,36.2
2018-07-05T10:40:42.468Z,35.6
2018-07-05T10:41:12.709Z,35.6
2018-07-05T10:41:43.238Z,35.3
2018-07-05T10:42:13.776Z,35.3
2018-07-05T10:43:37.660Z,34.7
2018-07-05T10:44:36.989Z,34
2018-07-05T10:45:36.871Z,35
2018-07-05T10:46:36.309Z,34.7
2018-07-05T10:47:36.148Z,34.8
2018-07-05T10:48:35.368Z,34.3
2018-07-05T10:49:35.092Z,34.8
2018-07-05T10:50:35.023Z,34.7
2018-07-05T10:51:34.645Z,34.9
2018-07-05T10:52:34.469Z,34
2018-07-05T10:53:33.793Z,34.6
2018-07-05T10:54:33.719Z,33.7
2018-07-05T10:55:33.142Z,33.9
2018-07-05T10:56:32.864Z,33.4
2018-07-05T10:57:32.302Z,33.7
2018-07-05T10:58:32.247Z,33.8
2018-07-05T10:59:31.985Z,33.4
2018-07-05T11:00:31.215Z,33.6
2018-07-05T11:01:31.151Z,33.4
2018-07-05T11:02:30.475Z,33.4
2018-07-05T11:03:30.315Z,33.6
2018-07-05T11:04:30.038Z,33.6
2018-07-05T11:05:29.668Z,33.8
2018-07-05T11:06:29.497Z,33.3
2018-07-05T11:07:28.981Z,33
2018-07-05T11:08:28.712Z,33.5
2018-07-05T11:09:28.045Z,32.2
2018-07-05T11:10:27.986Z,31.6
2018-07-05T11:11:27.809Z,32.3
2018-07-05T11:13:27.024Z,32.8
2018-07-05T11:14:26.542Z,32.1
2018-07-05T11:15:26.230Z,31.5
2018-07-05T11:16:25.565Z,31.2
2018-07-05T11:17:25.687Z,31.3
2018-07-05T11:18:25.200Z,31
2018-07-05T11:19:24.931Z,31.4
2018-07-05T11:20:24.375Z,31.1
2018-07-05T11:21:23.987Z,31
2018-07-05T11:22:24.098Z,30.7
2018-07-05T11:22:54.625Z,30.7
2018-07-05T11:23:24.945Z,31.2
2018-07-05T11:23:55.586Z,31.2
2018-07-05T11:25:22.992Z,30.8
2018-07-05T11:26:22.426Z,29.9
2018-07-05T11:27:22.153Z,29.9
2018-07-05T11:28:21.870Z,29.7
2018-07-05T11:29:21.703Z,30.6
2018-07-05T11:30:21.426Z,29.8
2018-07-05T11:31:20.663Z,30.3
2018-07-05T11:32:20.488Z,30.3
2018-07-05T11:33:20.311Z,30.5
2018-07-05T11:34:20.142Z,29.9
2018-07-05T11:35:19.870Z,30.4
2018-07-05T11:36:19.142Z,30.4
2018-07-05T11:37:19.250Z,30.5
2018-07-05T11:38:18.977Z,30.7
2018-07-05T11:39:18.420Z,29.5
2018-07-05T11:40:18.373Z,30.1
2018-07-05T11:41:17.689Z,30
2018-07-05T11:42:17.683Z,30.4
2018-07-05T11:43:17.486Z,29.9
2018-07-05T11:44:16.855Z,29.9
2018-07-05T11:45:16.676Z,30.5
2018-07-05T11:46:16.103Z,30.5
2018-07-05T11:47:16.112Z,30.2
2018-07-05T11:48:15.551Z,30.5
2018-07-05T11:49:15.376Z,30.8
2018-07-05T11:50:15.097Z,30.3
2018-07-05T11:51:14.822Z,30.3
2018-07-05T11:51:45.456Z,30.3
2018-07-05T11:52:15.812Z,31.1
2018-07-05T11:53:14.516Z,31
2018-07-05T11:54:13.842Z,30
2018-07-05T11:55:13.774Z,29.8
2018-07-05T11:56:13.507Z,29.5
2018-07-05T11:57:13.331Z,30.8
2018-07-05T11:58:12.856Z,29.5
2018-07-05T11:59:12.580Z,28.8
2018-07-05T12:00:12.303Z,28.8
2018-07-05T12:01:12.131Z,32.3
2018-07-05T12:02:11.455Z,29.8
2018-07-05T12:03:11.361Z,27.9
2018-07-05T12:04:11.446Z,28.6
2018-07-05T12:05:10.776Z,28.7
2018-07-05T12:06:10.723Z,28.9
2018-07-05T12:07:10.555Z,28.1
2018-07-05T12:08:09.883Z,27.5
2018-07-05T12:09:09.602Z,27.8
2018-07-05T12:10:09.343Z,27.3
2018-07-05T12:11:09.170Z,28.6
2018-07-05T12:12:09.001Z,28
2018-07-05T12:13:08.929Z,27.2
2018-07-05T12:14:08.547Z,27.3
2018-07-05T12:16:07.661Z,26.3
2018-07-05T12:17:07.677Z,27.5
2018-07-05T12:18:07.518Z,27.3
2018-07-05T12:19:07.253Z,28.5
2018-07-05T12:20:06.764Z,27.4
2018-07-05T12:21:06.771Z,27
2018-07-05T12:22:06.493Z,28.4
2018-07-05T12:23:05.929Z,28.1
2018-07-05T12:24:05.859Z,26.8
2018-07-05T12:25:05.691Z,27.1
2018-07-05T12:26:05.519Z,28.9
2018-07-05T12:27:05.242Z,27.5
2018-07-05T12:27:35.770Z,27.5
2018-07-05T12:30:04.184Z,27.4
2018-07-05T12:31:04.401Z,27.4
2018-07-05T12:32:03.730Z,27.6
2018-07-05T12:33:03.455Z,28.2
2018-07-05T12:34:03.398Z,27.6
2018-07-05T12:35:03.122Z,27.1
2018-07-05T12:36:03.035Z,27.5
2018-07-05T12:37:02.758Z,27.8
2018-07-05T12:37:33.008Z,27.8
2018-07-05T12:38:03.331Z,27.3
2018-07-05T12:38:33.603Z,27.3
2018-07-05T12:40:02.017Z,27.2
2018-07-05T12:41:01.813Z,26.8
2018-07-05T12:42:01.333Z,26.9
2018-07-05T12:43:01.241Z,27.5
2018-07-05T12:44:01.101Z,29.4
2018-07-05T12:45:00.827Z,26.9
2018-07-05T12:46:00.660Z,26.8
2018-07-05T12:47:00.063Z,26.8
2018-07-05T12:48:00.285Z,26.4
2018-07-05T12:49:00.041Z,26.1
2018-07-05T12:49:59.759Z,26
2018-07-05T12:50:59.482Z,25.5
2018-07-05T12:51:59.688Z,25.7
2018-07-05T12:52:58.721Z,26
2018-07-05T12:53:58.947Z,25.8
2018-07-05T12:54:58.770Z,26.1
2018-07-05T12:55:58.100Z,25.5
2018-07-05T12:56:58.213Z,25.4
2018-07-05T12:57:28.547Z,25.4
2018-07-05T12:57:59.026Z,26.1
2018-07-05T12:58:29.555Z,26.1